N223TN KSYR-CYYZ
Flight info
| Callsign | N223TN |
|---|---|
| Flight time | N/A |
| Altitude | VFR/045 |
| Route | |
| Aircraft | SR22/L-DOV/C |
Departure
| Time | 2026-04-23 23:45 |
|---|---|
| Airport | Syracuse Hancock International Airport (KSYR) |
Arrival
| Time | N/A |
|---|---|
| Airport | Toronto Pearson International Airport (CYYZ) |
| Time | Latitude | Longitude | Altitude | Speed | Heading |
|---|---|---|---|---|---|
| 2026-04-23 23:35 | 43.10331 | -76.10162 | 398 ft | 0 kts | 357° |
| 2026-04-23 23:42 | 43.10412 | -76.10211 | 400 ft | 18 kts | 336° |
| 2026-04-23 23:42 | 43.10521 | -76.10249 | 402 ft | 18 kts | 351° |
| 2026-04-23 23:42 | 43.10646 | -76.10239 | 402 ft | 17 kts | 51° |
| 2026-04-23 23:42 | 43.10677 | -76.09985 | 398 ft | 36 kts | 85° |
| 2026-04-23 23:43 | 43.10683 | -76.09713 | 399 ft | 24 kts | 88° |
| 2026-04-23 23:43 | 43.10678 | -76.09506 | 395 ft | 18 kts | 108° |
| 2026-04-23 23:43 | 43.10641 | -76.09359 | 394 ft | 12 kts | 47° |
| 2026-04-23 23:43 | 43.10647 | -76.09352 | 394 ft | 0 kts | 37° |
| 2026-04-23 23:44 | 43.10686 | -76.09315 | 395 ft | 32 kts | 18° |
| 2026-04-23 23:44 | 43.10916 | -76.09576 | 400 ft | 71 kts | 311° |
| 2026-04-23 23:44 | 43.11319 | -76.10169 | 646 ft | 90 kts | 301° |
| 2026-04-23 23:45 | 43.11128 | -76.10960 | 947 ft | 102 kts | 212° |
| 2026-04-23 23:45 | 43.10570 | -76.11511 | 1330 ft | 92 kts | 224° |
| 2026-04-23 23:45 | 43.10091 | -76.12122 | 1638 ft | 91 kts | 231° |
| 2026-04-23 23:45 | 43.09628 | -76.12666 | 2016 ft | 83 kts | 229° |
| 2026-04-23 23:46 | 43.09305 | -76.13325 | 2277 ft | 89 kts | 231° |
| 2026-04-23 23:46 | 43.08769 | -76.13866 | 2462 ft | 106 kts | 218° |
| 2026-04-23 23:46 | 43.08082 | -76.14497 | 2414 ft | 128 kts | 218° |
| 2026-04-23 23:46 | 43.07322 | -76.15202 | 2329 ft | 136 kts | 218° |
| 2026-04-23 23:47 | 43.06525 | -76.15955 | 2211 ft | 140 kts | 218° |
| 2026-04-23 23:47 | 43.05755 | -76.16670 | 2329 ft | 129 kts | 218° |
| 2026-04-23 23:47 | 43.05034 | -76.17328 | 2525 ft | 120 kts | 218° |
| 2026-04-23 23:47 | 43.04301 | -76.17834 | 2726 ft | 120 kts | 194° |
| 2026-04-23 23:48 | 43.03487 | -76.17692 | 2943 ft | 118 kts | 162° |
| 2026-04-23 23:48 | 43.02701 | -76.17339 | 3169 ft | 117 kts | 161° |
| 2026-04-23 23:48 | 43.01931 | -76.16984 | 3390 ft | 117 kts | 161° |
| 2026-04-23 23:48 | 43.01168 | -76.16622 | 3619 ft | 116 kts | 161° |
| 2026-04-23 23:49 | 42.99747 | -76.16993 | 4045 ft | 102 kts | 242° |
| 2026-04-23 23:49 | 42.99582 | -76.17836 | 4258 ft | 90 kts | 281° |
| 2026-04-23 23:49 | 42.99654 | -76.18673 | 4462 ft | 89 kts | 286° |
| 2026-04-23 23:50 | 42.99762 | -76.19563 | 4443 ft | 110 kts | 286° |
| 2026-04-23 23:50 | 42.99928 | -76.20731 | 4462 ft | 129 kts | 286° |
| 2026-04-23 23:50 | 43.00119 | -76.22013 | 4505 ft | 143 kts | 287° |
| 2026-04-23 23:50 | 43.00334 | -76.23381 | 4508 ft | 153 kts | 287° |
| 2026-04-23 23:51 | 43.00562 | -76.24850 | 4502 ft | 160 kts | 287° |
| 2026-04-23 23:51 | 43.01054 | -76.26197 | 4504 ft | 160 kts | 306° |
| 2026-04-23 23:51 | 43.01694 | -76.27467 | 4497 ft | 163 kts | 308° |
| 2026-04-23 23:51 | 43.02372 | -76.28701 | 4497 ft | 164 kts | 313° |
| 2026-04-23 23:52 | 43.03043 | -76.29971 | 4486 ft | 167 kts | 296° |
| 2026-04-23 23:52 | 43.03401 | -76.31486 | 4499 ft | 168 kts | 290° |
| 2026-04-23 23:52 | 43.03732 | -76.33030 | 4490 ft | 169 kts | 290° |
| 2026-04-23 23:52 | 43.04058 | -76.34567 | 4493 ft | 169 kts | 290° |
| 2026-04-23 23:53 | 43.04389 | -76.36116 | 4481 ft | 169 kts | 290° |
| 2026-04-23 23:53 | 43.04719 | -76.37653 | 4499 ft | 169 kts | 290° |
| 2026-04-23 23:53 | 43.05053 | -76.39201 | 4495 ft | 170 kts | 290° |
| 2026-04-23 23:53 | 43.05393 | -76.40770 | 4489 ft | 170 kts | 290° |
| 2026-04-23 23:54 | 43.05725 | -76.42316 | 4494 ft | 170 kts | 290° |
| 2026-04-23 23:54 | 43.06053 | -76.43861 | 4486 ft | 170 kts | 290° |
| 2026-04-23 23:54 | 43.06391 | -76.45426 | 4486 ft | 170 kts | 290° |
| 2026-04-23 23:54 | 43.06721 | -76.46967 | 4490 ft | 169 kts | 291° |
| 2026-04-23 23:55 | 43.07049 | -76.48508 | 4487 ft | 169 kts | 290° |
| 2026-04-23 23:55 | 43.07379 | -76.50065 | 4489 ft | 170 kts | 290° |
| 2026-04-23 23:55 | 43.07667 | -76.51641 | 4482 ft | 171 kts | 287° |
| 2026-04-23 23:55 | 43.07919 | -76.53223 | 4484 ft | 171 kts | 286° |
| 2026-04-23 23:56 | 43.08148 | -76.54691 | 4466 ft | 148 kts | 286° |
| 2026-04-23 23:56 | 43.08361 | -76.56109 | 4490 ft | 156 kts | 287° |
| 2026-04-23 23:56 | 43.08593 | -76.57589 | 4486 ft | 162 kts | 286° |
| 2026-04-23 23:56 | 43.08832 | -76.59094 | 4484 ft | 165 kts | 286° |
| 2026-04-23 23:57 | 43.09081 | -76.60636 | 4488 ft | 167 kts | 287° |
| 2026-04-23 23:57 | 43.09234 | -76.61598 | 4484 ft | 168 kts | 287° |
| 2026-04-23 23:57 | 43.09481 | -76.63170 | 4486 ft | 170 kts | 286° |
| 2026-04-23 23:57 | 43.09558 | -76.63663 | 4486 ft | 170 kts | 287° |
| 2026-04-23 23:58 | 43.10590 | -76.12516 | 422 ft | 0 kts | 270° |